sensor_id;sensor_type;location;lat;lon;timestamp;pressure;altitude;pressure_sealevel;temperature;humidity
69624;BME280;56843;52.020;5.670;2023-02-20T00:00:40;102354.50;;;8.23;67.78
69624;BME280;56843;52.020;5.670;2023-02-20T00:02:11;102345.72;;;8.23;67.75
69624;BME280;56843;52.020;5.670;2023-02-20T00:03:42;102341.97;;;8.24;67.37
69624;BME280;56843;52.020;5.670;2023-02-20T00:05:12;102337.47;;;8.24;67.72
69624;BME280;56843;52.020;5.670;2023-02-20T00:06:43;102330.56;;;8.23;67.81
69624;BME280;56843;52.020;5.670;2023-02-20T00:08:13;102326.00;;;8.24;67.83
69624;BME280;56843;52.020;5.670;2023-02-20T00:09:43;102328.16;;;8.22;67.93
69624;BME280;56843;52.020;5.670;2023-02-20T00:11:14;102340.13;;;8.24;67.86
69624;BME280;56843;52.020;5.670;2023-02-20T00:12:44;102332.13;;;8.24;67.87
69624;BME280;56843;52.020;5.670;2023-02-20T00:14:15;102337.47;;;8.24;67.86
69624;BME280;56843;52.020;5.670;2023-02-20T00:15:45;102341.97;;;8.24;67.96
69624;BME280;56843;52.020;5.670;2023-02-20T00:17:16;102333.75;;;8.25;68.09
69624;BME280;56843;52.020;5.670;2023-02-20T00:18:46;102329.75;;;8.23;68.09
69624;BME280;56843;52.020;5.670;2023-02-20T00:20:19;102322.56;;;8.18;68.33
69624;BME280;56843;52.020;5.670;2023-02-20T00:21:51;102320.19;;;8.17;68.31
69624;BME280;56843;52.020;5.670;2023-02-20T00:23:22;102309.56;;;8.17;68.35
69624;BME280;56843;52.020;5.670;2023-02-20T00:24:53;102315.94;;;8.15;68.59
69624;BME280;56843;52.020;5.670;2023-02-20T00:26:24;102309.56;;;8.17;68.45
69624;BME280;56843;52.020;5.670;2023-02-20T00:27:55;102318.84;;;8.19;68.43
69624;BME280;56843;52.020;5.670;2023-02-20T00:29:25;102312.75;;;8.19;68.34
69624;BME280;56843;52.020;5.670;2023-02-20T00:30:56;102319.38;;;8.21;68.43
69624;BME280;56843;52.020;5.670;2023-02-20T00:32:26;102314.06;;;8.21;68.33
69624;BME280;56843;52.020;5.670;2023-02-20T00:33:57;102315.38;;;8.24;68.56
69624;BME280;56843;52.020;5.670;2023-02-20T00:35:27;102313.25;;;8.26;68.13
69624;BME280;56843;52.020;5.670;2023-02-20T00:36:58;102318.03;;;8.29;68.24
69624;BME280;56843;52.020;5.670;2023-02-20T00:38:28;102314.31;;;8.30;68.23
69624;BME280;56843;52.020;5.670;2023-02-20T00:39:58;102299.13;;;8.30;68.23
69624;BME280;56843;52.020;5.670;2023-02-20T00:41:29;102297.78;;;8.33;68.24
69624;BME280;56843;52.020;5.670;2023-02-20T00:42:59;102295.13;;;8.33;68.21
69624;BME280;56843;52.020;5.670;2023-02-20T00:44:30;102295.41;;;8.36;68.21
69624;BME280;56843;52.020;5.670;2023-02-20T00:46:01;102288.72;;;8.39;68.16
69624;BME280;56843;52.020;5.670;2023-02-20T00:47:32;102294.06;;;8.39;68.04
69624;BME280;56843;52.020;5.670;2023-02-20T00:49:02;102291.13;;;8.40;68.15
69624;BME280;56843;52.020;5.670;2023-02-20T00:50:51;102290.03;;;8.41;68.12
69624;BME280;56843;52.020;5.670;2023-02-20T00:52:22;102278.34;;;8.42;68.05
69624;BME280;56843;52.020;5.670;2023-02-20T00:53:53;102274.63;;;8.43;67.96
69624;BME280;56843;52.020;5.670;2023-02-20T00:55:23;102267.16;;;8.45;67.64
69624;BME280;56843;52.020;5.670;2023-02-20T00:56:54;102272.47;;;8.45;67.95
69624;BME280;56843;52.020;5.670;2023-02-20T00:58:26;102261.53;;;8.47;67.78
69624;BME280;56843;52.020;5.670;2023-02-20T00:59:56;102264.50;;;8.45;67.83
69624;BME280;56843;52.020;5.670;2023-02-20T01:01:26;102262.34;;;8.47;67.99
69624;BME280;56843;52.020;5.670;2023-02-20T01:02:57;102256.75;;;8.49;67.95
69624;BME280;56843;52.020;5.670;2023-02-20T01:04:28;102269.53;;;8.52;67.93
69624;BME280;56843;52.020;5.670;2023-02-20T01:05:58;102257.78;;;8.53;67.86
69624;BME280;56843;52.020;5.670;2023-02-20T01:07:29;102252.97;;;8.55;67.97
69624;BME280;56843;52.020;5.670;2023-02-20T01:08:59;102236.47;;;8.58;67.63
69624;BME280;56843;52.020;5.670;2023-02-20T01:10:30;102231.94;;;8.58;67.64
69624;BME280;56843;52.020;5.670;2023-02-20T01:12:00;102235.97;;;8.61;67.85
69624;BME280;56843;52.020;5.670;2023-02-20T01:13:31;102228.75;;;8.61;67.69
69624;BME280;56843;52.020;5.670;2023-02-20T01:15:03;102221.81;;;8.60;67.63
69624;BME280;56843;52.020;5.670;2023-02-20T01:16:34;102223.94;;;8.58;67.79
69624;BME280;56843;52.020;5.670;2023-02-20T01:18:06;102219.16;;;8.55;67.86
69624;BME280;56843;52.020;5.670;2023-02-20T01:19:36;102219.44;;;8.54;67.96
69624;BME280;56843;52.020;5.670;2023-02-20T01:21:08;102219.44;;;8.54;67.85
69624;BME280;56843;52.020;5.670;2023-02-20T01:22:38;102212.50;;;8.53;67.90
69624;BME280;56843;52.020;5.670;2023-02-20T01:24:14;102206.66;;;8.51;68.08
69624;BME280;56843;52.020;5.670;2023-02-20T01:25:45;102206.97;;;8.49;68.00
69624;BME280;56843;52.020;5.670;2023-02-20T01:27:15;102201.63;;;8.49;68.02
69624;BME280;56843;52.020;5.670;2023-02-20T01:28:46;102200.03;;;8.48;68.06
69624;BME280;56843;52.020;5.670;2023-02-20T01:30:18;102193.13;;;8.47;67.98
69624;BME280;56843;52.020;5.670;2023-02-20T01:31:50;102188.84;;;8.46;68.16
69624;BME280;56843;52.020;5.670;2023-02-20T01:33:21;102186.47;;;8.45;68.17
69624;BME280;56843;52.020;5.670;2023-02-20T01:34:51;102196.59;;;8.43;68.17
69624;BME280;56843;52.020;5.670;2023-02-20T01:36:22;102186.22;;;8.41;68.16
69624;BME280;56843;52.020;5.670;2023-02-20T01:37:52;102199.00;;;8.39;68.33
69624;BME280;56843;52.020;5.670;2023-02-20T01:39:25;102194.75;;;8.38;68.54
69624;BME280;56843;52.020;5.670;2023-02-20T01:40:56;102188.13;;;8.36;68.31
69624;BME280;56843;52.020;5.670;2023-02-20T01:42:29;102191.59;;;8.36;68.31
69624;BME280;56843;52.020;5.670;2023-02-20T01:44:00;102183.06;;;8.34;68.50
69624;BME280;56843;52.020;5.670;2023-02-20T01:45:37;102190.78;;;8.36;68.33
69624;BME280;56843;52.020;5.670;2023-02-20T01:47:11;102183.84;;;8.35;68.41
69624;BME280;56843;52.020;5.670;2023-02-20T01:48:45;102191.84;;;8.35;68.36
69624;BME280;56843;52.020;5.670;2023-02-20T01:50:17;102185.47;;;8.36;68.56
69624;BME280;56843;52.020;5.670;2023-02-20T01:51:54;102181.75;;;8.37;68.32
69624;BME280;56843;52.020;5.670;2023-02-20T01:53:29;102183.59;;;8.36;68.28
69624;BME280;56843;52.020;5.670;2023-02-20T01:55:13;102178.50;;;8.40;68.48
69624;BME280;56843;52.020;5.670;2023-02-20T01:56:46;102176.66;;;8.40;68.21
69624;BME280;56843;52.020;5.670;2023-02-20T01:58:19;102178.22;;;8.41;68.00
69624;BME280;56843;52.020;5.670;2023-02-20T01:59:55;102176.38;;;8.42;68.14
69624;BME280;56843;52.020;5.670;2023-02-20T02:03:23;102160.44;;;8.37;68.21
69624;BME280;56843;52.020;5.670;2023-02-20T02:04:55;102161.22;;;8.37;68.23
69624;BME280;56843;52.020;5.670;2023-02-20T02:06:27;102165.19;;;8.40;68.22
69624;BME280;56843;52.020;5.670;2023-02-20T02:08:00;102169.47;;;8.41;68.16
69624;BME280;56843;52.020;5.670;2023-02-20T02:09:48;102175.31;;;8.43;68.20
69624;BME280;56843;52.020;5.670;2023-02-20T02:11:22;102169.72;;;8.39;68.20
69624;BME280;56843;52.020;5.670;2023-02-20T02:12:53;102163.63;;;8.39;68.38
69624;BME280;56843;52.020;5.670;2023-02-20T02:14:23;102166.00;;;8.40;68.31
69624;BME280;56843;52.020;5.670;2023-02-20T02:16:30;102160.91;;;8.44;68.22
69624;BME280;56843;52.020;5.670;2023-02-20T02:18:16;102151.88;;;8.40;68.28
69624;BME280;56843;52.020;5.670;2023-02-20T02:20:19;102155.34;;;8.40;68.36
69624;BME280;56843;52.020;5.670;2023-02-20T02:22:01;102150.78;;;8.46;68.38
69624;BME280;56843;52.020;5.670;2023-02-20T02:27:39;102143.81;;;8.55;68.27
69624;BME280;56843;52.020;5.670;2023-02-20T02:36:33;102148.03;;;8.66;68.26
69624;BME280;56843;52.020;5.670;2023-02-20T02:38:19;102134.16;;;8.69;68.22
69624;BME280;56843;52.020;5.670;2023-02-20T02:40:27;102131.75;;;8.72;68.01
69624;BME280;56843;52.020;5.670;2023-02-20T02:44:12;102154.38;;;8.75;68.24
69624;BME280;56843;52.020;5.670;2023-02-20T02:45:50;102141.56;;;8.77;68.24
69624;BME280;56843;52.020;5.670;2023-02-20T02:47:49;102142.06;;;8.79;68.23
69624;BME280;56843;52.020;5.670;2023-02-20T02:51:28;102133.81;;;8.80;68.28
69624;BME280;56843;52.020;5.670;2023-02-20T02:52:59;102127.16;;;8.83;68.12
69624;BME280;56843;52.020;5.670;2023-02-20T02:54:31;102127.38;;;8.86;68.31
69624;BME280;56843;52.020;5.670;2023-02-20T02:56:02;102128.69;;;8.89;68.05
69624;BME280;56843;52.020;5.670;2023-02-20T02:57:51;102120.13;;;8.92;68.12
69624;BME280;56843;52.020;5.670;2023-02-20T02:59:24;102121.44;;;8.95;68.13
69624;BME280;56843;52.020;5.670;2023-02-20T03:01:00;102114.25;;;8.95;68.28
69624;BME280;56843;52.020;5.670;2023-02-20T03:02:36;102120.09;;;8.97;68.28
69624;BME280;56843;52.020;5.670;2023-02-20T03:04:09;102111.03;;;8.98;68.21
69624;BME280;56843;52.020;5.670;2023-02-20T03:05:49;102120.34;;;9.01;68.09
69624;BME280;56843;52.020;5.670;2023-02-20T03:07:22;102126.19;;;9.03;68.18
69624;BME280;56843;52.020;5.670;2023-02-20T03:09:02;102118.72;;;9.05;68.22
69624;BME280;56843;52.020;5.670;2023-02-20T03:10:35;102121.38;;;9.05;68.41
69624;BME280;56843;52.020;5.670;2023-02-20T03:12:10;102118.13;;;9.08;68.21
69624;BME280;56843;52.020;5.670;2023-02-20T03:13:47;102118.38;;;9.11;68.32
69624;BME280;56843;52.020;5.670;2023-02-20T03:15:42;102121.84;;;9.12;68.38
69624;BME280;56843;52.020;5.670;2023-02-20T03:19:02;102111.97;;;9.12;68.41
69624;BME280;56843;52.020;5.670;2023-02-20T03:20:42;102121.78;;;9.17;68.42
69624;BME280;56843;52.020;5.670;2023-02-20T03:22:42;102117.50;;;9.21;68.28
69624;BME280;56843;52.020;5.670;2023-02-20T03:24:19;102120.72;;;9.18;68.50
69624;BME280;56843;52.020;5.670;2023-02-20T03:26:00;102107.63;;;9.21;68.44
69624;BME280;56843;52.020;5.670;2023-02-20T03:29:21;102110.28;;;9.21;68.43
69624;BME280;56843;52.020;5.670;2023-02-20T03:31:09;102111.88;;;9.22;68.48
69624;BME280;56843;52.020;5.670;2023-02-20T03:32:43;102102.03;;;9.23;68.58
69624;BME280;56843;52.020;5.670;2023-02-20T03:34:35;102098.78;;;9.26;68.53
69624;BME280;56843;52.020;5.670;2023-02-20T03:36:32;102099.59;;;9.26;68.66
69624;BME280;56843;52.020;5.670;2023-02-20T03:38:23;102099.06;;;9.24;68.68
69624;BME280;56843;52.020;5.670;2023-02-20T03:40:14;102085.75;;;9.24;68.67
69624;BME280;56843;52.020;5.670;2023-02-20T03:42:07;102083.88;;;9.25;68.78
69624;BME280;56843;52.020;5.670;2023-02-20T03:44:06;102088.91;;;9.26;68.62
69624;BME280;56843;52.020;5.670;2023-02-20T03:45:40;102094.47;;;9.30;68.76
69624;BME280;56843;52.020;5.670;2023-02-20T03:47:14;102092.34;;;9.32;68.68
69624;BME280;56843;52.020;5.670;2023-02-20T03:48:54;102089.09;;;9.35;68.51
69624;BME280;56843;52.020;5.670;2023-02-20T03:50:29;102087.53;;;9.34;68.51
69624;BME280;56843;52.020;5.670;2023-02-20T03:52:01;102091.75;;;9.35;68.62
69624;BME280;56843;52.020;5.670;2023-02-20T03:53:43;102087.53;;;9.34;68.76
69624;BME280;56843;52.020;5.670;2023-02-20T03:55:15;102089.09;;;9.35;68.60
69624;BME280;56843;52.020;5.670;2023-02-20T03:56:49;102092.78;;;9.39;68.81
69624;BME280;56843;52.020;5.670;2023-02-20T03:58:26;102081.06;;;9.40;68.77
69624;BME280;56843;52.020;5.670;2023-02-20T04:00:08;102089.25;;;9.43;68.62
69624;BME280;56843;52.020;5.670;2023-02-20T04:01:53;102090.88;;;9.44;68.53
69624;BME280;56843;52.020;5.670;2023-02-20T04:03:29;102085.81;;;9.43;68.80
69624;BME280;56843;52.020;5.670;2023-02-20T04:05:05;102087.41;;;9.44;68.60
69624;BME280;56843;52.020;5.670;2023-02-20T04:06:39;102083.16;;;9.43;68.60
69624;BME280;56843;52.020;5.670;2023-02-20T04:08:15;102074.38;;;9.42;68.96
69624;BME280;56843;52.020;5.670;2023-02-20T04:09:47;102083.44;;;9.41;68.81
69624;BME280;56843;52.020;5.670;2023-02-20T04:11:29;102090.88;;;9.44;68.74
69624;BME280;56843;52.020;5.670;2023-02-20T04:13:01;102083.44;;;9.41;69.01
69624;BME280;56843;52.020;5.670;2023-02-20T04:14:33;102094.59;;;9.43;68.79
69624;BME280;56843;52.020;5.670;2023-02-20T04:16:06;102091.66;;;9.45;68.89
69624;BME280;56843;52.020;5.670;2023-02-20T04:17:44;102090.88;;;9.44;68.98
69624;BME280;56843;52.020;5.670;2023-02-20T04:19:17;102094.59;;;9.43;69.00
69624;BME280;56843;52.020;5.670;2023-02-20T04:20:54;102098.88;;;9.44;68.95
69624;BME280;56843;52.020;5.670;2023-02-20T04:22:34;102094.88;;;9.42;69.20
69624;BME280;56843;52.020;5.670;2023-02-20T04:24:16;102091.94;;;9.43;68.95
69624;BME280;56843;52.020;5.670;2023-02-20T04:27:19;102089.03;;;9.40;69.19
69624;BME280;56843;52.020;5.670;2023-02-20T04:28:55;102090.91;;;9.39;69.22
69624;BME280;56843;52.020;5.670;2023-02-20T04:30:26;102090.91;;;9.39;69.12
69624;BME280;56843;52.020;5.670;2023-02-20T04:31:57;102088.75;;;9.41;69.16
69624;BME280;56843;52.020;5.670;2023-02-20T04:33:32;102087.69;;;9.42;69.37
69624;BME280;56843;52.020;5.670;2023-02-20T04:35:15;102087.41;;;9.44;69.42
69624;BME280;56843;52.020;5.670;2023-02-20T04:36:46;102088.19;;;9.44;69.43
69624;BME280;56843;52.020;5.670;2023-02-20T04:38:17;102077.53;;;9.44;69.36
69624;BME280;56843;52.020;5.670;2023-02-20T04:39:48;102074.88;;;9.44;69.27
69624;BME280;56843;52.020;5.670;2023-02-20T04:41:20;102089.25;;;9.43;69.43
69624;BME280;56843;52.020;5.670;2023-02-20T04:42:51;102083.94;;;9.43;69.38
69624;BME280;56843;52.020;5.670;2023-02-20T04:44:22;102079.91;;;9.46;69.41
69624;BME280;56843;52.020;5.670;2023-02-20T04:46:02;102084.69;;;9.49;69.55
69624;BME280;56843;52.020;5.670;2023-02-20T04:47:32;102077.19;;;9.51;69.28
69624;BME280;56843;52.020;5.670;2023-02-20T04:49:03;102087.00;;;9.55;69.46
69624;BME280;56843;52.020;5.670;2023-02-20T04:50:34;102082.19;;;9.57;69.19
69624;BME280;56843;52.020;5.670;2023-02-20T04:52:06;102080.53;;;9.61;69.12
69624;BME280;56843;52.020;5.670;2023-02-20T04:53:37;102087.19;;;9.64;69.34
69624;BME280;56843;52.020;5.670;2023-02-20T04:55:08;102080.78;;;9.65;69.13
69624;BME280;56843;52.020;5.670;2023-02-20T04:56:38;102074.06;;;9.68;69.31
69624;BME280;56843;52.020;5.670;2023-02-20T04:58:09;102074.28;;;9.71;69.29
69624;BME280;56843;52.020;5.670;2023-02-20T04:59:53;102074.50;;;9.75;69.21
69624;BME280;56843;52.020;5.670;2023-02-20T05:01:23;102071.53;;;9.76;68.90
69624;BME280;56843;52.020;5.670;2023-02-20T05:02:54;102061.41;;;9.78;68.87
69624;BME280;56843;52.020;5.670;2023-02-20T05:04:24;102069.91;;;9.80;68.79
69624;BME280;56843;52.020;5.670;2023-02-20T05:05:56;102076.81;;;9.81;68.66
69624;BME280;56843;52.020;5.670;2023-02-20T05:07:26;102074.97;;;9.82;69.00
69624;BME280;56843;52.020;5.670;2023-02-20T05:08:57;102073.09;;;9.82;68.95
69624;BME280;56843;52.020;5.670;2023-02-20T05:10:29;102076.25;;;9.84;68.91
69624;BME280;56843;52.020;5.670;2023-02-20T05:12:00;102078.34;;;9.87;68.78
69624;BME280;56843;52.020;5.670;2023-02-20T05:13:30;102081.81;;;9.88;68.85
69624;BME280;56843;52.020;5.670;2023-02-20T05:15:01;102081.53;;;9.89;68.92
69624;BME280;56843;52.020;5.670;2023-02-20T05:16:31;102080.75;;;9.89;69.09
69624;BME280;56843;52.020;5.670;2023-02-20T05:18:02;102075.41;;;9.89;69.02
69624;BME280;56843;52.020;5.670;2023-02-20T05:19:32;102081.25;;;9.91;68.91
69624;BME280;56843;52.020;5.670;2023-02-20T05:21:03;102082.56;;;9.93;69.03
69624;BME280;56843;52.020;5.670;2023-02-20T05:22:52;102079.38;;;9.91;68.85
69624;BME280;56843;52.020;5.670;2023-02-20T05:24:22;102079.59;;;9.95;68.75
69624;BME280;56843;52.020;5.670;2023-02-20T05:25:53;102080.59;;;9.99;68.97
69624;BME280;56843;52.020;5.670;2023-02-20T05:27:24;102068.84;;;10.00;68.71
69624;BME280;56843;52.020;5.670;2023-02-20T05:28:55;102066.69;;;10.02;68.98
69624;BME280;56843;52.020;5.670;2023-02-20T05:30:25;102073.34;;;10.04;68.89
69624;BME280;56843;52.020;5.670;2023-02-20T05:31:56;102081.84;;;10.06;68.98
69624;BME280;56843;52.020;5.670;2023-02-20T05:33:26;102069.00;;;10.08;68.57
69624;BME280;56843;52.020;5.670;2023-02-20T05:34:57;102073.25;;;10.09;68.70
69624;BME280;56843;52.020;5.670;2023-02-20T05:36:28;102084.22;;;10.08;68.76
69624;BME280;56843;52.020;5.670;2023-02-20T05:37:58;102081.56;;;10.08;68.60
69624;BME280;56843;52.020;5.670;2023-02-20T05:39:29;102075.66;;;10.11;68.54
69624;BME280;56843;52.020;5.670;2023-02-20T05:40:59;102068.13;;;10.13;68.78
69624;BME280;56843;52.020;5.670;2023-02-20T05:42:30;102066.28;;;10.13;68.81
69624;BME280;56843;52.020;5.670;2023-02-20T05:44:00;102055.59;;;10.13;68.59
69624;BME280;56843;52.020;5.670;2023-02-20T05:45:31;102059.84;;;10.14;68.58
69624;BME280;56843;52.020;5.670;2023-02-20T05:47:02;102054.50;;;10.14;68.62
69624;BME280;56843;52.020;5.670;2023-02-20T05:48:33;102052.63;;;10.15;68.57
69624;BME280;56843;52.020;5.670;2023-02-20T05:50:03;102052.63;;;10.15;68.41
69624;BME280;56843;52.020;5.670;2023-02-20T05:51:34;102048.34;;;10.14;68.55
69624;BME280;56843;52.020;5.670;2023-02-20T05:53:05;102057.47;;;10.13;68.72
69624;BME280;56843;52.020;5.670;2023-02-20T05:54:35;102065.47;;;10.13;68.67
69624;BME280;56843;52.020;5.670;2023-02-20T05:56:06;102062.25;;;10.16;68.72
69624;BME280;56843;52.020;5.670;2023-02-20T05:57:36;102061.38;;;10.20;68.85
69624;BME280;56843;52.020;5.670;2023-02-20T05:59:07;102058.94;;;10.24;68.58
69624;BME280;56843;52.020;5.670;2023-02-20T06:00:38;102057.84;;;10.25;68.54
69624;BME280;56843;52.020;5.670;2023-02-20T06:02:08;102055.41;;;10.28;68.95
69624;BME280;56843;52.020;5.670;2023-02-20T06:03:39;102057.19;;;10.33;68.49
69624;BME280;56843;52.020;5.670;2023-02-20T06:05:09;102058.22;;;10.37;68.38
69624;BME280;56843;52.020;5.670;2023-02-20T06:06:41;102057.03;;;10.43;68.51
69624;BME280;56843;52.020;5.670;2023-02-20T06:08:11;102060.13;;;10.50;68.65
69624;BME280;56843;52.020;5.670;2023-02-20T06:09:43;102064.53;;;10.60;68.39
69624;BME280;56843;52.020;5.670;2023-02-20T06:11:14;102066.84;;;10.66;68.68
69624;BME280;56843;52.020;5.670;2023-02-20T06:12:44;102064.28;;;10.75;68.45
69624;BME280;56843;52.020;5.670;2023-02-20T06:14:16;102057.47;;;10.82;68.29
69624;BME280;56843;52.020;5.670;2023-02-20T06:15:48;102064.03;;;10.90;68.09
69624;BME280;56843;52.020;5.670;2023-02-20T06:17:18;102062.56;;;10.97;68.20
69624;BME280;56843;52.020;5.670;2023-02-20T06:18:50;102055.47;;;11.06;67.85
69624;BME280;56843;52.020;5.670;2023-02-20T06:20:21;102048.91;;;11.13;67.61
69624;BME280;56843;52.020;5.670;2023-02-20T06:21:52;102066.44;;;11.19;67.42
69624;BME280;56843;52.020;5.670;2023-02-20T06:23:23;102063.38;;;11.25;67.55
69624;BME280;56843;52.020;5.670;2023-02-20T06:24:53;102073.69;;;11.32;67.75
69624;BME280;56843;52.020;5.670;2023-02-20T06:26:24;102075.16;;;11.38;67.51
69624;BME280;56843;52.020;5.670;2023-02-20T06:27:54;102064.38;;;11.43;67.54
69624;BME280;56843;52.020;5.670;2023-02-20T06:29:25;102068.03;;;11.47;67.21
69624;BME280;56843;52.020;5.670;2023-02-20T06:30:56;102073.78;;;11.54;67.11
69624;BME280;56843;52.020;5.670;2023-02-20T06:32:26;102065.22;;;11.57;67.27
69624;BME280;56843;52.020;5.670;2023-02-20T06:33:57;102067.50;;;11.63;67.16
69624;BME280;56843;52.020;5.670;2023-02-20T06:35:27;102060.75;;;11.66;66.88
69624;BME280;56843;52.020;5.670;2023-02-20T06:36:59;102053.72;;;11.70;66.64
69624;BME280;56843;52.020;5.670;2023-02-20T06:38:32;102052.31;;;11.72;66.81
69624;BME280;56843;52.020;5.670;2023-02-20T06:40:04;102050.94;;;11.75;66.41
69624;BME280;56843;52.020;5.670;2023-02-20T06:41:35;102073.03;;;11.80;66.70
69624;BME280;56843;52.020;5.670;2023-02-20T06:43:06;102066.28;;;11.83;66.46
69624;BME280;56843;52.020;5.670;2023-02-20T06:44:36;102064.88;;;11.86;66.56
69624;BME280;56843;52.020;5.670;2023-02-20T06:46:07;102057.03;;;11.89;66.36
69624;BME280;56843;52.020;5.670;2023-02-20T06:47:37;102072.81;;;11.91;66.10
69624;BME280;56843;52.020;5.670;2023-02-20T06:49:08;102067.97;;;11.93;66.21
69624;BME280;56843;52.020;5.670;2023-02-20T06:50:40;102061.22;;;11.95;65.79
69624;BME280;56843;52.020;5.670;2023-02-20T06:52:10;102059.31;;;11.96;66.03
69624;BME280;56843;52.020;5.670;2023-02-20T06:53:41;102061.69;;;11.97;65.82
69624;BME280;56843;52.020;5.670;2023-02-20T06:55:11;102054.16;;;11.99;65.75
69624;BME280;56843;52.020;5.670;2023-02-20T06:56:42;102062.69;;;12.01;65.78
69624;BME280;56843;52.020;5.670;2023-02-20T06:58:12;102059.69;;;12.03;65.65
69624;BME280;56843;52.020;5.670;2023-02-20T06:59:46;102075.44;;;12.04;65.53
69624;BME280;56843;52.020;5.670;2023-02-20T07:01:21;102075.97;;;12.06;65.70
69624;BME280;56843;52.020;5.670;2023-02-20T07:02:52;102058.78;;;12.07;65.82
69624;BME280;56843;52.020;5.670;2023-02-20T07:04:24;102060.06;;;12.10;65.41
69624;BME280;56843;52.020;5.670;2023-02-20T07:05:55;102060.88;;;12.10;65.44
69624;BME280;56843;52.020;5.670;2023-02-20T07:07:26;102069.41;;;12.12;65.17
69624;BME280;56843;52.020;5.670;2023-02-20T07:08:57;102061.84;;;12.14;65.08
69624;BME280;56843;52.020;5.670;2023-02-20T07:10:27;102057.78;;;12.17;65.13
69624;BME280;56843;52.020;5.670;2023-02-20T07:11:57;102075.41;;;12.18;65.21
69624;BME280;56843;52.020;5.670;2023-02-20T07:13:28;102067.88;;;12.20;64.84
69624;BME280;56843;52.020;5.670;2023-02-20T07:14:59;102072.94;;;12.21;64.90
69624;BME280;56843;52.020;5.670;2023-02-20T07:16:29;102076.13;;;12.23;64.78
69624;BME280;56843;52.020;5.670;2023-02-20T07:18:00;102067.75;;;12.25;64.86
69624;BME280;56843;52.020;5.670;2023-02-20T07:19:31;102069.38;;;12.26;64.90
69624;BME280;56843;52.020;5.670;2023-02-20T07:21:02;102064.50;;;12.28;64.77
69624;BME280;56843;52.020;5.670;2023-02-20T07:22:32;102068.47;;;12.30;64.67
69624;BME280;56843;52.020;5.670;2023-02-20T07:24:03;102059.63;;;12.30;64.62
69624;BME280;56843;52.020;5.670;2023-02-20T07:25:34;102069.72;;;12.33;64.61
69624;BME280;56843;52.020;5.670;2023-02-20T07:27:04;102064.06;;;12.34;64.26
69624;BME280;56843;52.020;5.670;2023-02-20T07:28:36;102056.03;;;12.34;64.47
69624;BME280;56843;52.020;5.670;2023-02-20T07:30:06;102064.88;;;12.35;64.20
69624;BME280;56843;52.020;5.670;2023-02-20T07:31:37;102061.56;;;12.38;64.28
69624;BME280;56843;52.020;5.670;2023-02-20T07:33:08;102063.16;;;12.39;64.04
69624;BME280;56843;52.020;5.670;2023-02-20T07:34:39;102062.06;;;12.40;64.27
69624;BME280;56843;52.020;5.670;2023-02-20T07:36:11;102074.38;;;12.41;64.24
69624;BME280;56843;52.020;5.670;2023-02-20T07:37:41;102072.50;;;12.41;64.17
69624;BME280;56843;52.020;5.670;2023-02-20T07:39:12;102063.34;;;12.42;64.10
69624;BME280;56843;52.020;5.670;2023-02-20T07:40:43;102071.06;;;12.44;64.04
69624;BME280;56843;52.020;5.670;2023-02-20T07:42:16;102062.75;;;12.45;63.90
69624;BME280;56843;52.020;5.670;2023-02-20T07:43:52;102071.84;;;12.44;64.15
69624;BME280;56843;52.020;5.670;2023-02-20T07:45:23;102071.56;;;12.46;64.14
69624;BME280;56843;52.020;5.670;2023-02-20T07:46:54;102072.81;;;12.48;63.71
69624;BME280;56843;52.020;5.670;2023-02-20T07:48:25;102061.34;;;12.48;63.54
69624;BME280;56843;52.020;5.670;2023-02-20T07:49:55;102067.47;;;12.48;63.62
69624;BME280;56843;52.020;5.670;2023-02-20T07:51:26;102068.28;;;12.49;63.53
69624;BME280;56843;52.020;5.670;2023-02-20T07:52:56;102069.06;;;12.49;63.60
69624;BME280;56843;52.020;5.670;2023-02-20T07:54:27;102072.22;;;12.51;63.46
69624;BME280;56843;52.020;5.670;2023-02-20T07:55:58;102080.75;;;12.53;63.81
69624;BME280;56843;52.020;5.670;2023-02-20T07:57:30;102069.25;;;12.53;63.48
69624;BME280;56843;52.020;5.670;2023-02-20T07:59:01;102071.91;;;12.53;63.74
69624;BME280;56843;52.020;5.670;2023-02-20T08:00:32;102070.53;;;12.55;63.63
69624;BME280;56843;52.020;5.670;2023-02-20T08:02:02;102060.91;;;12.54;63.67
69624;BME280;56843;52.020;5.670;2023-02-20T08:03:33;102068.16;;;12.54;63.57
69624;BME280;56843;52.020;5.670;2023-02-20T08:05:03;102072.41;;;12.55;63.47
69624;BME280;56843;52.020;5.670;2023-02-20T08:06:34;102067.84;;;12.55;63.21
69624;BME280;56843;52.020;5.670;2023-02-20T08:08:05;102061.69;;;12.55;63.27
69624;BME280;56843;52.020;5.670;2023-02-20T08:09:36;102068.63;;;12.56;63.08
69624;BME280;56843;52.020;5.670;2023-02-20T08:11:06;102069.44;;;12.57;63.46
69624;BME280;56843;52.020;5.670;2023-02-20T08:12:37;102064.09;;;12.57;63.46
69624;BME280;56843;52.020;5.670;2023-02-20T08:14:07;102056.84;;;12.57;63.03
69624;BME280;56843;52.020;5.670;2023-02-20T08:15:38;102060.28;;;12.57;63.24
69624;BME280;56843;52.020;5.670;2023-02-20T08:17:08;102069.44;;;12.57;62.99
69624;BME280;56843;52.020;5.670;2023-02-20T08:18:41;102064.09;;;12.57;63.33
69624;BME280;56843;52.020;5.670;2023-02-20T08:20:13;102069.94;;;12.59;62.87
69624;BME280;56843;52.020;5.670;2023-02-20T08:21:45;102066.44;;;12.58;63.23
69624;BME280;56843;52.020;5.670;2023-02-20T08:23:20;102058.91;;;12.60;63.21
69624;BME280;56843;52.020;5.670;2023-02-20T08:24:51;102065.66;;;12.57;63.31
69624;BME280;56843;52.020;5.670;2023-02-20T08:26:22;102060.78;;;12.60;62.93
69624;BME280;56843;52.020;5.670;2023-02-20T08:27:52;102057.59;;;12.57;63.01
69624;BME280;56843;52.020;5.670;2023-02-20T08:29:23;102063.44;;;12.60;62.71
69624;BME280;56843;52.020;5.670;2023-02-20T08:30:53;102066.13;;;12.60;62.85
69624;BME280;56843;52.020;5.670;2023-02-20T08:32:24;102060.00;;;12.59;62.96
69624;BME280;56843;52.020;5.670;2023-02-20T08:33:54;102065.06;;;12.61;62.89